createdAt,value
2019-06-01T00:02:19.815Z,75.43
2019-06-01T00:04:49.223Z,75.92
2019-06-01T00:07:17.303Z,77.41
2019-06-01T00:09:45.223Z,76.58
2019-06-01T00:12:13.050Z,76.39
2019-06-01T00:14:41.695Z,75.81
2019-06-01T00:17:09.604Z,75.88
2019-06-01T00:19:37.366Z,76.34
2019-06-01T00:22:05.158Z,78.25
2019-06-01T00:24:32.899Z,78.16
2019-06-01T00:27:00.664Z,78.41
2019-06-01T00:29:31.320Z,78.48
2019-06-01T00:31:59.102Z,77.54
2019-06-01T00:34:26.871Z,77.97
2019-06-01T00:36:56.499Z,77.49
2019-06-01T00:39:24.260Z,77.99
2019-06-01T00:41:52.497Z,79.55
2019-06-01T00:44:20.505Z,79.39
2019-06-01T00:46:56.238Z,80.16
2019-06-01T00:49:24.080Z,80.40
2019-06-01T00:51:53.782Z,81.16
2019-06-01T00:54:21.690Z,80.70
2019-06-01T00:56:49.744Z,81.43
2019-06-01T00:59:17.563Z,80.92
2019-06-01T01:01:45.876Z,80.36
2019-06-01T01:04:13.715Z,80.88
2019-06-01T01:06:41.495Z,80.84
2019-06-01T01:09:09.261Z,81.66
2019-06-01T01:11:37.067Z,81.23
2019-06-01T01:14:06.687Z,80.76
2019-06-01T01:16:34.540Z,82.16
2019-06-01T01:19:02.331Z,81.37
2019-06-01T01:21:31.786Z,80.62
2019-06-01T01:23:59.566Z,80.73
2019-06-01T01:26:27.336Z,80.18
2019-06-01T01:28:55.101Z,80.23
2019-06-01T01:31:22.854Z,79.50
2019-06-01T01:33:51.403Z,79.38
2019-06-01T01:36:19.300Z,80.04
2019-06-01T01:38:48.254Z,79.71
2019-06-01T01:41:16.241Z,80.12
2019-06-01T01:43:45.976Z,81.71
2019-06-01T01:46:13.677Z,82.56
2019-06-01T01:48:41.421Z,82.94
2019-06-01T01:51:09.259Z,83.33
2019-06-01T01:53:38.197Z,83.76
2019-06-01T01:56:05.971Z,84.67
2019-06-01T01:58:33.702Z,84.58
2019-06-01T02:01:20.861Z,84.54
2019-06-01T02:03:32.406Z,85.34
2019-06-01T02:06:00.188Z,84.60
2019-06-01T02:08:29.723Z,84.62
2019-06-01T02:10:57.567Z,86.03
2019-06-01T02:13:25.401Z,86.56
2019-06-01T02:15:54.116Z,86.69
2019-06-01T02:18:22.002Z,87.31
2019-06-01T02:20:49.794Z,87.16
2019-06-01T02:23:17.521Z,86.11
2019-06-01T02:25:45.261Z,86.27
2019-06-01T02:28:13.021Z,86.88
2019-06-01T02:30:40.773Z,87.76
2019-06-01T02:33:08.485Z,88.78
2019-06-01T02:35:36.258Z,88.59
2019-06-01T02:38:05.760Z,87.30
2019-06-01T02:40:35.590Z,86.88
2019-06-01T02:43:06.269Z,87.26
2019-06-01T02:45:33.432Z,87.18
2019-06-01T02:48:01.874Z,87.12
2019-06-01T02:50:31.017Z,86.70
2019-06-01T02:52:59.405Z,86.06
2019-06-01T02:55:27.308Z,86.17
2019-06-01T02:57:55.985Z,87.14
2019-06-01T03:01:21.458Z,86.65
2019-06-01T03:03:50.891Z,87.15
2019-06-01T03:06:19.664Z,86.15
2019-06-01T03:08:50.163Z,86.11
2019-06-01T03:11:22.064Z,85.31
2019-06-01T03:13:53.787Z,84.97
2019-06-01T03:16:24.014Z,84.79
2019-06-01T03:18:53.476Z,85.24
2019-06-01T03:21:22.391Z,85.89
2019-06-01T03:23:53.290Z,87.58
2019-06-01T03:26:23.932Z,88.42
2019-06-01T03:28:52.062Z,87.73
2019-06-01T03:31:19.912Z,87.91
2019-06-01T03:33:48.947Z,89.20
2019-06-01T03:36:17.339Z,89.76
2019-06-01T03:38:45.138Z,89.73
2019-06-01T03:41:12.869Z,88.89
2019-06-01T03:43:40.618Z,87.89
2019-06-01T03:46:08.747Z,88.46
2019-06-01T03:48:36.729Z,88.86
2019-06-01T03:51:05.596Z,88.02
2019-06-01T03:53:33.535Z,88.73
2019-06-01T03:56:02.006Z,87.88
2019-06-01T03:58:31.042Z,87.94
2019-06-01T04:00:58.872Z,89.54
2019-06-01T04:03:26.671Z,90.45
2019-06-01T04:05:54.471Z,90.96
2019-06-01T04:08:22.223Z,90.62
2019-06-01T04:10:51.162Z,90.88
2019-06-01T04:13:18.889Z,90.60
2019-06-01T04:15:46.920Z,90.09
2019-06-01T04:18:14.682Z,90.03
2019-06-01T04:20:42.445Z,88.82
2019-06-01T04:23:10.274Z,88.56
2019-06-01T04:25:38.559Z,88.05
2019-06-01T04:28:12.338Z,87.99
2019-06-01T04:30:40.575Z,87.15
2019-06-01T04:33:09.004Z,87.27
2019-06-01T04:35:36.908Z,86.56
2019-06-01T04:38:05.066Z,86.80
2019-06-01T04:40:33.029Z,85.75
2019-06-01T04:43:00.822Z,83.59
2019-06-01T04:45:28.606Z,82.78
2019-06-01T04:47:56.354Z,82.21
2019-06-01T04:50:24.102Z,81.78
2019-06-01T04:52:51.876Z,82.77
2019-06-01T04:55:19.640Z,82.06
2019-06-01T04:57:47.384Z,81.86
2019-06-01T05:00:25.692Z,80.67
2019-06-01T05:02:45.970Z,81.80
2019-06-01T05:05:15.179Z,82.04
2019-06-01T05:07:43.417Z,80.84
2019-06-01T05:10:11.657Z,80.82
2019-06-01T05:12:39.780Z,80.10
2019-06-01T05:15:09.778Z,78.51
2019-06-01T05:17:37.897Z,78.66
2019-06-01T05:20:08.173Z,80.34
2019-06-01T05:22:36.134Z,78.45
2019-06-01T05:25:04.145Z,77.72
2019-06-01T05:27:31.908Z,78.03
2019-06-01T05:29:59.664Z,78.05
2019-06-01T05:32:27.501Z,76.12
2019-06-01T05:34:55.253Z,74.91
2019-06-01T05:37:23.007Z,73.04
2019-06-01T05:39:50.764Z,72.62
2019-06-01T05:42:19.043Z,73.52
2019-06-01T05:44:46.925Z,73.43
2019-06-01T05:47:14.671Z,76.10
2019-06-01T05:49:42.424Z,74.37
2019-06-01T05:52:10.394Z,71.90
2019-06-01T05:54:38.279Z,71.93
2019-06-01T05:57:06.081Z,71.54
2019-06-01T05:59:33.952Z,71.84
2019-06-01T06:02:01.699Z,71.10
2019-06-01T06:04:29.467Z,68.64
2019-06-01T06:06:57.296Z,70.79
2019-06-01T06:09:25.061Z,72.01
2019-06-01T06:11:53.954Z,70.41
2019-06-01T06:14:22.619Z,69.12
2019-06-01T06:16:50.570Z,67.61
2019-06-01T06:19:21.113Z,68.19
2019-06-01T06:21:47.997Z,65.64
2019-06-01T06:24:16.381Z,65.92
2019-06-01T06:26:44.267Z,65.50
2019-06-01T06:29:12.751Z,63.07
2019-06-01T06:31:40.778Z,62.44
2019-06-01T06:34:08.507Z,63.16
2019-06-01T06:36:36.264Z,63.47
2019-06-01T06:39:06.404Z,63.42
2019-06-01T06:41:34.338Z,63.07
2019-06-01T06:44:02.096Z,64.91
2019-06-01T06:46:29.876Z,64.37
2019-06-01T06:48:57.673Z,61.88
2019-06-01T06:51:25.601Z,61.12
2019-06-01T06:53:53.440Z,61.10
2019-06-01T06:56:22.019Z,60.65
2019-06-01T06:58:49.973Z,60.78
2019-06-01T07:01:18.695Z,58.73
2019-06-01T07:03:46.556Z,59.83
2019-06-01T07:06:14.383Z,58.73
2019-06-01T07:08:42.275Z,57.74
2019-06-01T07:11:12.063Z,56.82
2019-06-01T07:13:39.717Z,59.04
2019-06-01T07:16:07.525Z,56.84
2019-06-01T07:18:35.259Z,56.47
2019-06-01T07:21:03.079Z,54.65
2019-06-01T07:23:32.005Z,57.98
2019-06-01T07:26:00.015Z,55.34
2019-06-01T07:28:29.712Z,54.87
2019-06-01T07:30:57.593Z,54.66
2019-06-01T07:33:26.451Z,54.21
2019-06-01T07:35:54.471Z,57.30
2019-06-01T07:38:22.306Z,57.58
2019-06-01T07:40:50.215Z,55.41
2019-06-01T07:43:18.029Z,53.38
2019-06-01T07:45:45.767Z,53.30
2019-06-01T07:48:13.552Z,54.69
2019-06-01T07:50:41.354Z,50.80
2019-06-01T07:53:09.113Z,48.67
2019-06-01T07:55:36.831Z,47.98
2019-06-01T07:58:04.707Z,49.72
2019-06-01T08:00:33.241Z,48.70
2019-06-01T08:03:01.118Z,49.58
2019-06-01T08:05:30.061Z,50.47
2019-06-01T08:07:58.073Z,48.37
2019-06-01T08:10:26.491Z,46.81
2019-06-01T08:13:14.988Z,45.99
2019-06-01T08:15:43.240Z,45.92
2019-06-01T08:18:11.040Z,47.08
2019-06-01T08:20:38.908Z,47.53
2019-06-01T08:23:06.763Z,47.30
2019-06-01T08:25:34.787Z,47.54
2019-06-01T08:28:03.039Z,48.88
2019-06-01T08:30:30.986Z,49.04
2019-06-01T08:32:58.797Z,47.78
2019-06-01T08:35:27.618Z,45.76
2019-06-01T08:37:55.424Z,45.79
2019-06-01T08:40:23.379Z,44.38
2019-06-01T08:42:53.095Z,44.76
2019-06-01T08:45:21.092Z,44.62
2019-06-01T08:47:48.879Z,44.85
2019-06-01T08:50:16.741Z,44.49
2019-06-01T08:52:44.622Z,44.04
2019-06-01T08:55:13.971Z,43.59
2019-06-01T08:57:41.714Z,43.39
2019-06-01T09:00:10.865Z,43.16
2019-06-01T09:02:38.663Z,43.40
2019-06-01T09:05:23.084Z,43.75
2019-06-01T09:07:37.428Z,44.90
2019-06-01T09:10:07.097Z,42.24
2019-06-01T09:12:35.716Z,41.67
2019-06-01T09:15:05.016Z,42.10
2019-06-01T09:17:33.476Z,40.97
2019-06-01T09:20:01.490Z,38.87
2019-06-01T09:22:29.479Z,38.35
2019-06-01T09:24:57.461Z,38.71
2019-06-01T09:27:28.147Z,39.45
2019-06-01T09:29:55.938Z,39.48
2019-06-01T09:32:23.808Z,38.38
2019-06-01T09:34:54.749Z,37.94
2019-06-01T09:37:22.564Z,38.45
2019-06-01T09:39:50.545Z,36.00
2019-06-01T09:42:18.336Z,35.08
2019-06-01T09:44:47.183Z,35.66
2019-06-01T09:47:16.148Z,40.22
2019-06-01T09:49:43.958Z,38.28
2019-06-01T09:52:12.667Z,38.09
2019-06-01T09:54:41.144Z,39.77
2019-06-01T09:57:08.964Z,38.50
2019-06-01T09:59:37.930Z,38.05
2019-06-01T10:02:06.006Z,38.09
2019-06-01T10:04:34.419Z,36.22
2019-06-01T10:07:02.307Z,35.34
2019-06-01T10:09:30.062Z,35.88
2019-06-01T10:11:57.987Z,34.31
2019-06-01T10:14:25.770Z,36.43
2019-06-01T10:16:53.541Z,37.27
2019-06-01T10:19:21.335Z,35.59
2019-06-01T10:21:49.097Z,35.96
2019-06-01T10:24:16.837Z,37.48
2019-06-01T10:26:44.690Z,37.98
2019-06-01T10:29:12.425Z,39.43
2019-06-01T10:31:41.638Z,39.14
2019-06-01T10:34:12.429Z,36.78
2019-06-01T10:36:40.346Z,35.46
2019-06-01T10:39:08.214Z,38.04
2019-06-01T10:41:37.497Z,36.03
2019-06-01T10:44:05.431Z,35.26
2019-06-01T10:46:33.935Z,35.36
2019-06-01T10:49:03.862Z,36.51
2019-06-01T10:51:32.087Z,37.55
2019-06-01T10:54:00.196Z,39.13
2019-06-01T10:56:30.452Z,36.76
2019-06-01T10:59:00.538Z,36.99
2019-06-01T11:01:27.933Z,38.77
2019-06-01T11:03:55.695Z,38.89
2019-06-01T11:06:36.654Z,38.09
2019-06-01T11:08:53.251Z,40.55
2019-06-01T11:11:22.121Z,39.41
2019-06-01T11:13:49.876Z,37.79
2019-06-01T11:16:17.905Z,38.14
2019-06-01T11:18:45.834Z,39.36
2019-06-01T11:21:15.243Z,39.14
2019-06-01T11:23:46.302Z,39.96
2019-06-01T11:26:12.819Z,39.13
2019-06-01T11:28:42.154Z,38.49
2019-06-01T11:31:11.809Z,39.76
2019-06-01T11:33:40.173Z,39.85
2019-06-01T11:36:10.199Z,39.61
2019-06-01T11:38:38.508Z,39.85
2019-06-01T11:41:06.828Z,39.85
2019-06-01T11:43:34.706Z,40.46
2019-06-01T11:46:02.473Z,38.62
2019-06-01T11:48:30.393Z,38.63
2019-06-01T11:50:59.325Z,39.36
2019-06-01T11:53:27.123Z,38.30
2019-06-01T11:55:58.840Z,39.32
2019-06-01T11:58:26.645Z,40.95
2019-06-01T12:00:54.467Z,41.35
2019-06-01T12:03:22.252Z,41.55
2019-06-01T12:05:50.011Z,41.76
2019-06-01T12:08:17.786Z,41.03
2019-06-01T12:10:45.592Z,41.07
2019-06-01T12:13:13.416Z,40.84
2019-06-01T12:15:42.275Z,39.93
2019-06-01T12:18:10.554Z,40.22
2019-06-01T12:20:38.648Z,40.07
2019-06-01T12:23:06.634Z,40.61
2019-06-01T12:25:34.438Z,40.41
2019-06-01T12:28:02.310Z,40.21
2019-06-01T12:30:30.090Z,40.25
2019-06-01T12:32:57.928Z,40.74
2019-06-01T12:35:25.751Z,40.24
2019-06-01T12:38:05.318Z,38.73
2019-06-01T12:40:24.127Z,38.72
2019-06-01T12:42:52.114Z,38.51
2019-06-01T12:45:22.812Z,38.41
2019-06-01T12:47:55.256Z,39.07
2019-06-01T12:50:25.805Z,38.58
2019-06-01T12:52:53.653Z,37.94
2019-06-01T12:55:23.247Z,39.17
2019-06-01T12:57:51.386Z,40.14
2019-06-01T13:00:19.635Z,40.14
2019-06-01T13:03:01.957Z,39.71
2019-06-01T13:05:19.181Z,40.97
2019-06-01T13:07:56.340Z,39.53
2019-06-01T13:10:17.035Z,39.24
2019-06-01T13:12:45.158Z,38.56
2019-06-01T13:15:15.510Z,38.86
2019-06-01T13:17:43.287Z,38.83
2019-06-01T13:20:11.385Z,39.23
2019-06-01T13:22:39.193Z,39.52
2019-06-01T13:25:07.241Z,39.67
2019-06-01T13:27:35.017Z,39.47
2019-06-01T13:30:04.270Z,38.75
2019-06-01T13:32:32.103Z,38.75
2019-06-01T13:34:59.903Z,40.42
2019-06-01T13:37:27.667Z,39.70
2019-06-01T13:39:58.117Z,38.00
2019-06-01T13:42:25.072Z,38.16
2019-06-01T13:44:53.652Z,37.63
2019-06-01T13:47:22.171Z,38.00
2019-06-01T13:49:50.169Z,38.78
2019-06-01T13:52:19.184Z,39.77
2019-06-01T13:54:46.939Z,37.55
2019-06-01T13:57:16.524Z,38.27
2019-06-01T14:00:01.905Z,37.31
2019-06-01T14:02:30.323Z,37.50
2019-06-01T14:05:02.784Z,39.12
2019-06-01T14:07:32.657Z,38.29
2019-06-01T14:10:04.930Z,39.98
2019-06-01T14:12:33.900Z,39.21
2019-06-01T14:15:02.527Z,39.60
2019-06-01T14:17:30.364Z,39.63
2019-06-01T14:20:05.953Z,37.80
2019-06-01T14:22:34.092Z,37.28
2019-06-01T14:25:12.362Z,37.49
2019-06-01T14:27:33.162Z,37.88
2019-06-01T14:30:01.004Z,37.90
2019-06-01T14:32:32.113Z,37.51
2019-06-01T14:35:00.329Z,37.45
2019-06-01T14:37:30.624Z,36.10
2019-06-01T14:39:58.411Z,36.88
2019-06-01T14:42:26.309Z,36.53
2019-06-01T14:44:54.069Z,36.21
2019-06-01T14:47:21.910Z,35.34
2019-06-01T14:49:49.748Z,37.84
2019-06-01T14:52:19.315Z,36.08
2019-06-01T14:54:56.472Z,37.98
2019-06-01T14:57:26.734Z,36.66
2019-06-01T14:59:56.049Z,38.61
2019-06-01T15:02:24.476Z,39.11
2019-06-01T15:04:56.946Z,39.75
2019-06-01T15:07:26.728Z,38.84
2019-06-01T15:09:54.957Z,37.92
2019-06-01T15:12:26.980Z,38.01
2019-06-01T15:14:55.524Z,39.32
2019-06-01T15:17:23.473Z,38.55
2019-06-01T15:19:51.890Z,37.79
2019-06-01T15:22:19.845Z,37.82
2019-06-01T15:24:47.608Z,38.63
2019-06-01T15:27:16.577Z,38.95
2019-06-01T15:29:44.349Z,38.34
2019-06-01T15:32:12.086Z,37.71
2019-06-01T15:34:39.845Z,37.87
2019-06-01T15:37:07.616Z,37.20
2019-06-01T15:39:35.511Z,38.68
2019-06-01T15:42:03.615Z,38.86
2019-06-01T15:44:31.472Z,37.79
2019-06-01T15:46:59.687Z,37.37
2019-06-01T15:49:27.697Z,38.81
2019-06-01T15:51:55.811Z,37.18
2019-06-01T15:54:24.021Z,37.69
2019-06-01T15:56:52.217Z,36.68
2019-06-01T15:59:30.789Z,37.58
2019-06-01T16:01:59.306Z,38.00
2019-06-01T16:04:27.267Z,36.87
2019-06-01T16:06:55.068Z,38.55
2019-06-01T16:09:22.828Z,38.30
2019-06-01T16:11:50.764Z,38.17
2019-06-01T16:14:18.531Z,37.35
2019-06-01T16:16:46.325Z,38.59
2019-06-01T16:19:14.101Z,37.81
2019-06-01T16:21:41.876Z,37.83
2019-06-01T16:24:09.722Z,37.49
2019-06-01T16:26:37.615Z,37.13
2019-06-01T16:29:05.520Z,38.37
2019-06-01T16:31:33.299Z,38.79
2019-06-01T16:34:03.289Z,39.07
2019-06-01T16:36:34.760Z,39.75
2019-06-01T16:39:08.080Z,40.54
2019-06-01T16:41:40.008Z,39.44
2019-06-01T16:44:11.394Z,39.25
2019-06-01T16:46:40.906Z,39.01
2019-06-01T16:49:14.330Z,39.11
2019-06-01T16:51:56.694Z,40.55
2019-06-01T16:54:25.119Z,41.37
2019-06-01T16:56:53.700Z,41.33
2019-06-01T16:59:21.730Z,42.13
2019-06-01T17:01:49.635Z,41.58
2019-06-01T17:04:18.549Z,42.13
2019-06-01T17:06:47.279Z,41.90
2019-06-01T17:09:19.725Z,41.90
2019-06-01T17:11:52.471Z,42.24
2019-06-01T17:14:23.863Z,42.70
2019-06-01T17:16:57.217Z,39.53
2019-06-01T17:19:30.948Z,38.62
2019-06-01T17:22:01.562Z,40.23
2019-06-01T17:24:31.977Z,42.31
2019-06-01T17:27:04.389Z,42.70
2019-06-01T17:29:36.250Z,40.74
2019-06-01T17:32:22.739Z,42.14
2019-06-01T17:34:39.651Z,40.46
2019-06-01T17:37:07.521Z,41.28
2019-06-01T17:39:43.274Z,43.30
2019-06-01T17:42:15.065Z,41.95
2019-06-01T17:44:47.631Z,39.72
2019-06-01T17:47:20.842Z,40.21
2019-06-01T17:49:57.249Z,41.50
2019-06-01T17:52:28.374Z,39.92
2019-06-01T17:55:07.298Z,42.70
2019-06-01T17:57:46.488Z,43.30
2019-06-01T18:00:17.411Z,42.91
2019-06-01T18:02:45.677Z,39.58
2019-06-01T18:05:15.797Z,42.42
2019-06-01T18:07:46.294Z,41.26
2019-06-01T18:10:16.990Z,41.86
2019-06-01T18:12:47.013Z,42.43
2019-06-01T18:15:17.700Z,42.93
2019-06-01T18:17:48.214Z,43.12
2019-06-01T18:20:16.974Z,43.18
2019-06-01T18:22:44.844Z,43.25
2019-06-01T18:25:21.679Z,43.25
2019-06-01T18:27:51.893Z,41.55
2019-06-01T18:30:24.258Z,43.60
2019-06-01T18:32:53.796Z,43.51
2019-06-01T18:35:23.585Z,42.52
2019-06-01T18:37:51.499Z,42.94
2019-06-01T18:40:23.492Z,43.16
2019-06-01T18:43:01.433Z,44.27
2019-06-01T18:45:31.062Z,44.20
2019-06-01T18:47:58.951Z,43.87
2019-06-01T18:50:26.762Z,43.61
2019-06-01T18:52:54.584Z,42.98
2019-06-01T18:55:22.340Z,43.68
2019-06-01T18:57:54.123Z,43.96
2019-06-01T19:00:21.946Z,44.68
2019-06-01T19:02:51.075Z,44.75
2019-06-01T19:05:19.018Z,44.82
2019-06-01T19:07:46.959Z,44.55
2019-06-01T19:10:16.398Z,44.92
2019-06-01T19:12:44.326Z,41.90
2019-06-01T19:15:27.829Z,44.28
2019-06-01T19:17:43.927Z,44.44
2019-06-01T19:20:15.268Z,43.04
2019-06-01T19:22:43.474Z,42.80
2019-06-01T19:25:13.215Z,41.32
2019-06-01T19:27:41.234Z,45.38
2019-06-01T19:30:10.841Z,44.07
2019-06-01T19:32:41.945Z,42.07
2019-06-01T19:35:11.544Z,43.60
2019-06-01T19:37:41.039Z,42.65
2019-06-01T19:40:11.379Z,43.05
2019-06-01T19:42:39.391Z,42.59
2019-06-01T19:45:18.434Z,43.76
2019-06-01T19:47:41.072Z,43.46
2019-06-01T19:50:10.352Z,42.48
2019-06-01T19:52:38.516Z,42.19
2019-06-01T19:55:06.768Z,42.24
2019-06-01T19:57:34.887Z,42.76
2019-06-01T20:00:02.950Z,43.03
2019-06-01T20:02:34.101Z,43.60
2019-06-01T20:05:00.649Z,42.83
2019-06-01T20:07:28.451Z,43.53
2019-06-01T20:09:56.257Z,43.10
2019-06-01T20:12:24.072Z,42.94
2019-06-01T20:14:51.836Z,42.99
2019-06-01T20:17:23.094Z,43.05
2019-06-01T20:19:49.306Z,43.33
2019-06-01T20:22:17.141Z,43.74
2019-06-01T20:24:44.946Z,43.87
2019-06-01T20:27:13.422Z,43.56
2019-06-01T20:29:41.582Z,43.97
2019-06-01T20:32:09.440Z,43.76
2019-06-01T20:34:37.266Z,44.46
2019-06-01T20:37:05.160Z,44.03
2019-06-01T20:39:32.905Z,44.75
2019-06-01T20:42:19.965Z,44.96
2019-06-01T20:44:30.862Z,44.55
2019-06-01T20:46:58.680Z,45.13
2019-06-01T20:49:26.458Z,46.50
2019-06-01T20:51:54.197Z,45.77
2019-06-01T20:54:23.207Z,46.93
2019-06-01T20:56:51.184Z,46.03
2019-06-01T20:59:21.116Z,46.71
2019-06-01T21:01:49.124Z,46.85
2019-06-01T21:04:18.081Z,47.03
2019-06-01T21:06:45.941Z,47.20
2019-06-01T21:09:13.859Z,47.43
2019-06-01T21:11:41.933Z,48.03
2019-06-01T21:14:09.744Z,47.64
2019-06-01T21:16:37.558Z,47.61
2019-06-01T21:19:05.318Z,48.41
2019-06-01T21:21:33.113Z,48.34
2019-06-01T21:24:00.905Z,48.35
2019-06-01T21:26:28.692Z,48.14
2019-06-01T21:28:56.495Z,48.70
2019-06-01T21:31:25.485Z,48.84
2019-06-01T21:33:53.367Z,48.71
2019-06-01T21:36:21.536Z,48.42
2019-06-01T21:38:49.409Z,48.76
2019-06-01T21:41:17.516Z,49.12
2019-06-01T21:43:45.452Z,49.40
2019-06-01T21:46:13.227Z,49.87
2019-06-01T21:48:41.039Z,49.98
2019-06-01T21:51:08.859Z,50.12
2019-06-01T21:53:36.686Z,50.34
2019-06-01T21:56:04.542Z,50.30
2019-06-01T21:58:32.318Z,50.56
2019-06-01T22:01:00.112Z,50.65
2019-06-01T22:03:27.882Z,51.38
2019-06-01T22:05:55.648Z,51.94
2019-06-01T22:08:23.426Z,51.47
2019-06-01T22:10:51.225Z,52.48
2019-06-01T22:13:22.307Z,51.98
2019-06-01T22:15:48.683Z,53.72
2019-06-01T22:18:17.602Z,53.36
2019-06-01T22:20:45.525Z,54.44
2019-06-01T22:23:13.291Z,54.46
2019-06-01T22:25:41.108Z,54.62
2019-06-01T22:28:08.816Z,54.39
2019-06-01T22:30:36.623Z,54.75
2019-06-01T22:33:04.434Z,54.72
2019-06-01T22:35:32.369Z,55.33
2019-06-01T22:38:00.152Z,56.39
2019-06-01T22:40:29.377Z,57.70
2019-06-01T22:42:57.291Z,58.06
2019-06-01T22:45:25.070Z,58.52
2019-06-01T22:47:52.844Z,59.00
2019-06-01T22:50:20.847Z,60.25
2019-06-01T22:52:48.703Z,61.11
2019-06-01T22:55:16.485Z,61.36
2019-06-01T22:57:44.232Z,62.15
2019-06-01T23:00:12.439Z,62.80
2019-06-01T23:02:40.165Z,63.42
2019-06-01T23:05:08.576Z,63.47
2019-06-01T23:07:36.289Z,64.27
2019-06-01T23:10:04.404Z,63.77
2019-06-01T23:12:32.162Z,64.58
2019-06-01T23:14:59.933Z,63.95
2019-06-01T23:17:28.014Z,63.61
2019-06-01T23:19:55.974Z,63.63
2019-06-01T23:22:23.985Z,64.27
2019-06-01T23:24:51.786Z,64.28
2019-06-01T23:27:19.539Z,64.58
2019-06-01T23:29:47.395Z,64.80
2019-06-01T23:32:15.146Z,64.59
2019-06-01T23:34:44.306Z,65.46
2019-06-01T23:37:12.070Z,65.45
2019-06-01T23:39:40.009Z,65.29
2019-06-01T23:42:07.891Z,65.45
2019-06-01T23:44:35.625Z,66.12
2019-06-01T23:47:03.394Z,66.46
2019-06-01T23:49:31.397Z,67.42
2019-06-01T23:51:59.269Z,67.25
2019-06-01T23:54:27.653Z,66.84
2019-06-01T23:56:55.587Z,66.41
2019-06-01T23:59:24.045Z,66.39
